sensor_id;sensor_type;location;lat;lon;timestamp;temperature;humidity
49184;DHT22;35021;49.214;12.270;2023-06-04T00:01:14;21.60;39.70
49184;DHT22;35021;49.214;12.270;2023-06-04T00:03:42;21.60;39.60
49184;DHT22;35021;49.214;12.270;2023-06-04T00:09:28;21.60;39.70
49184;DHT22;35021;49.214;12.270;2023-06-04T00:11:55;21.60;39.80
49184;DHT22;35021;49.214;12.270;2023-06-04T00:14:22;21.50;39.80
49184;DHT22;35021;49.214;12.270;2023-06-04T00:16:49;21.50;39.80
49184;DHT22;35021;49.214;12.270;2023-06-04T00:19:21;21.50;39.80
49184;DHT22;35021;49.214;12.270;2023-06-04T00:22:15;21.50;39.80
49184;DHT22;35021;49.214;12.270;2023-06-04T00:24:42;21.50;39.90
49184;DHT22;35021;49.214;12.270;2023-06-04T00:31:34;21.50;39.90
49184;DHT22;35021;49.214;12.270;2023-06-04T00:37:33;21.50;39.90
49184;DHT22;35021;49.214;12.270;2023-06-04T00:40:00;21.50;39.80
49184;DHT22;35021;49.214;12.270;2023-06-04T00:42:27;21.50;39.80
49184;DHT22;35021;49.214;12.270;2023-06-04T00:44:54;21.50;39.80
49184;DHT22;35021;49.214;12.270;2023-06-04T00:47:24;21.50;39.80
49184;DHT22;35021;49.214;12.270;2023-06-04T00:49:56;21.50;39.80
49184;DHT22;35021;49.214;12.270;2023-06-04T00:52:23;21.50;39.70
49184;DHT22;35021;49.214;12.270;2023-06-04T00:59:20;21.50;39.70
49184;DHT22;35021;49.214;12.270;2023-06-04T01:02:26;21.50;39.70
49184;DHT22;35021;49.214;12.270;2023-06-04T01:04:55;21.50;39.70
49184;DHT22;35021;49.214;12.270;2023-06-04T01:07:27;21.50;39.70
49184;DHT22;35021;49.214;12.270;2023-06-04T01:09:55;21.60;39.70
49184;DHT22;35021;49.214;12.270;2023-06-04T01:12:22;21.60;39.70
49184;DHT22;35021;49.214;12.270;2023-06-04T01:14:49;21.50;39.60
49184;DHT22;35021;49.214;12.270;2023-06-04T01:17:39;21.60;39.60
49184;DHT22;35021;49.214;12.270;2023-06-04T01:20:32;21.60;39.60
49184;DHT22;35021;49.214;12.270;2023-06-04T01:23:29;21.60;39.70
49184;DHT22;35021;49.214;12.270;2023-06-04T01:26:03;21.60;39.60
49184;DHT22;35021;49.214;12.270;2023-06-04T01:28:46;21.50;39.50
49184;DHT22;35021;49.214;12.270;2023-06-04T01:31:16;21.50;39.50
49184;DHT22;35021;49.214;12.270;2023-06-04T01:33:44;21.50;39.50
49184;DHT22;35021;49.214;12.270;2023-06-04T01:36:11;21.50;39.60
49184;DHT22;35021;49.214;12.270;2023-06-04T01:38:39;21.50;39.70
49184;DHT22;35021;49.214;12.270;2023-06-04T01:41:06;21.50;39.70
49184;DHT22;35021;49.214;12.270;2023-06-04T01:43:34;21.40;39.60
49184;DHT22;35021;49.214;12.270;2023-06-04T01:46:02;21.40;39.70
49184;DHT22;35021;49.214;12.270;2023-06-04T01:48:30;21.40;39.60
49184;DHT22;35021;49.214;12.270;2023-06-04T01:50:58;21.40;39.70
49184;DHT22;35021;49.214;12.270;2023-06-04T01:53:25;21.40;39.70
49184;DHT22;35021;49.214;12.270;2023-06-04T01:56:05;21.40;39.70
49184;DHT22;35021;49.214;12.270;2023-06-04T01:58:32;21.40;39.60
49184;DHT22;35021;49.214;12.270;2023-06-04T02:01:00;21.40;39.60
49184;DHT22;35021;49.214;12.270;2023-06-04T02:03:30;21.40;39.70
49184;DHT22;35021;49.214;12.270;2023-06-04T02:06:04;21.40;39.60
49184;DHT22;35021;49.214;12.270;2023-06-04T02:08:34;21.40;39.60
49184;DHT22;35021;49.214;12.270;2023-06-04T02:11:02;21.40;39.50
49184;DHT22;35021;49.214;12.270;2023-06-04T02:13:33;21.40;39.50
49184;DHT22;35021;49.214;12.270;2023-06-04T02:16:00;21.40;39.50
49184;DHT22;35021;49.214;12.270;2023-06-04T02:18:28;21.40;39.50
49184;DHT22;35021;49.214;12.270;2023-06-04T02:20:57;21.40;39.50
49184;DHT22;35021;49.214;12.270;2023-06-04T02:23:25;21.40;39.50
49184;DHT22;35021;49.214;12.270;2023-06-04T02:25:52;21.40;39.50
49184;DHT22;35021;49.214;12.270;2023-06-04T02:28:20;21.40;39.50
49184;DHT22;35021;49.214;12.270;2023-06-04T02:30:56;21.40;39.40
49184;DHT22;35021;49.214;12.270;2023-06-04T02:33:23;21.40;39.40
49184;DHT22;35021;49.214;12.270;2023-06-04T02:36:14;21.40;39.40
49184;DHT22;35021;49.214;12.270;2023-06-04T02:38:42;21.40;39.40
49184;DHT22;35021;49.214;12.270;2023-06-04T02:41:09;21.40;39.50
49184;DHT22;35021;49.214;12.270;2023-06-04T02:43:36;21.30;39.50
49184;DHT22;35021;49.214;12.270;2023-06-04T02:46:03;21.30;39.60
49184;DHT22;35021;49.214;12.270;2023-06-04T02:48:30;21.30;39.60
49184;DHT22;35021;49.214;12.270;2023-06-04T02:50:57;21.20;39.60
49184;DHT22;35021;49.214;12.270;2023-06-04T02:53:24;21.20;39.50
49184;DHT22;35021;49.214;12.270;2023-06-04T02:55:56;21.30;39.60
49184;DHT22;35021;49.214;12.270;2023-06-04T02:58:25;21.20;39.50
49184;DHT22;35021;49.214;12.270;2023-06-04T03:00:55;21.20;39.50
49184;DHT22;35021;49.214;12.270;2023-06-04T03:03:22;21.20;39.40
49184;DHT22;35021;49.214;12.270;2023-06-04T03:05:49;21.20;39.40
49184;DHT22;35021;49.214;12.270;2023-06-04T03:08:16;21.20;39.30
49184;DHT22;35021;49.214;12.270;2023-06-04T03:10:55;21.20;39.30
49184;DHT22;35021;49.214;12.270;2023-06-04T03:13:49;21.20;39.30
49184;DHT22;35021;49.214;12.270;2023-06-04T03:16:16;21.20;39.30
49184;DHT22;35021;49.214;12.270;2023-06-04T03:18:43;21.20;39.20
49184;DHT22;35021;49.214;12.270;2023-06-04T03:21:10;21.20;39.20
49184;DHT22;35021;49.214;12.270;2023-06-04T03:27:03;21.30;39.20
49184;DHT22;35021;49.214;12.270;2023-06-04T03:29:31;21.30;39.20
49184;DHT22;35021;49.214;12.270;2023-06-04T03:31:59;21.30;39.20
49184;DHT22;35021;49.214;12.270;2023-06-04T03:34:26;21.30;39.20
49184;DHT22;35021;49.214;12.270;2023-06-04T03:36:54;21.30;39.20
49184;DHT22;35021;49.214;12.270;2023-06-04T03:39:21;21.30;39.20
49184;DHT22;35021;49.214;12.270;2023-06-04T03:41:48;21.30;39.20
49184;DHT22;35021;49.214;12.270;2023-06-04T03:44:17;21.30;39.20
49184;DHT22;35021;49.214;12.270;2023-06-04T03:46:45;21.30;39.20
49184;DHT22;35021;49.214;12.270;2023-06-04T03:49:13;21.30;39.20
49184;DHT22;35021;49.214;12.270;2023-06-04T03:51:41;21.30;39.20
49184;DHT22;35021;49.214;12.270;2023-06-04T03:54:08;21.30;39.20
49184;DHT22;35021;49.214;12.270;2023-06-04T03:56:35;21.30;39.20
49184;DHT22;35021;49.214;12.270;2023-06-04T03:59:02;21.30;39.20
49184;DHT22;35021;49.214;12.270;2023-06-04T04:01:29;21.30;39.20
49184;DHT22;35021;49.214;12.270;2023-06-04T04:03:56;21.30;39.20
49184;DHT22;35021;49.214;12.270;2023-06-04T04:06:23;21.30;39.20
49184;DHT22;35021;49.214;12.270;2023-06-04T04:12:18;21.30;39.20
49184;DHT22;35021;49.214;12.270;2023-06-04T04:15:08;21.30;39.20
49184;DHT22;35021;49.214;12.270;2023-06-04T04:17:59;21.30;39.20
49184;DHT22;35021;49.214;12.270;2023-06-04T04:20:26;21.30;39.30
49184;DHT22;35021;49.214;12.270;2023-06-04T04:22:53;21.30;39.40
49184;DHT22;35021;49.214;12.270;2023-06-04T04:25:20;21.20;39.40
49184;DHT22;35021;49.214;12.270;2023-06-04T04:31:06;21.20;39.60
49184;DHT22;35021;49.214;12.270;2023-06-04T04:33:35;21.20;39.80
49184;DHT22;35021;49.214;12.270;2023-06-04T04:36:07;21.20;39.90
49184;DHT22;35021;49.214;12.270;2023-06-04T04:38:40;21.20;40.00
49184;DHT22;35021;49.214;12.270;2023-06-04T04:41:07;21.20;40.00
49184;DHT22;35021;49.214;12.270;2023-06-04T04:43:36;21.30;40.10
49184;DHT22;35021;49.214;12.270;2023-06-04T04:46:07;21.30;40.10
49184;DHT22;35021;49.214;12.270;2023-06-04T04:48:34;21.40;40.10
49184;DHT22;35021;49.214;12.270;2023-06-04T04:51:01;21.40;40.10
49184;DHT22;35021;49.214;12.270;2023-06-04T04:53:28;21.50;40.10
49184;DHT22;35021;49.214;12.270;2023-06-04T04:55:55;21.50;40.10
49184;DHT22;35021;49.214;12.270;2023-06-04T04:58:21;21.60;40.10
49184;DHT22;35021;49.214;12.270;2023-06-04T05:04:08;21.70;40.10
49184;DHT22;35021;49.214;12.270;2023-06-04T05:06:43;21.80;40.30
49184;DHT22;35021;49.214;12.270;2023-06-04T05:09:14;21.90;40.30
49184;DHT22;35021;49.214;12.270;2023-06-04T05:11:42;21.90;40.20
49184;DHT22;35021;49.214;12.270;2023-06-04T05:14:09;22.00;40.20
49184;DHT22;35021;49.214;12.270;2023-06-04T05:16:37;22.00;40.30
49184;DHT22;35021;49.214;12.270;2023-06-04T05:19:08;22.00;40.30
49184;DHT22;35021;49.214;12.270;2023-06-04T05:21:37;22.00;40.40
49184;DHT22;35021;49.214;12.270;2023-06-04T05:24:04;22.00;40.40
49184;DHT22;35021;49.214;12.270;2023-06-04T05:26:31;22.00;40.50
49184;DHT22;35021;49.214;12.270;2023-06-04T05:28:59;22.00;40.70
49184;DHT22;35021;49.214;12.270;2023-06-04T05:31:27;22.00;40.80
49184;DHT22;35021;49.214;12.270;2023-06-04T05:33:54;21.90;41.70
49184;DHT22;35021;49.214;12.270;2023-06-04T05:36:21;22.00;41.00
49184;DHT22;35021;49.214;12.270;2023-06-04T05:45:42;22.10;40.40
49184;DHT22;35021;49.214;12.270;2023-06-04T05:48:09;22.20;40.10
49184;DHT22;35021;49.214;12.270;2023-06-04T05:50:36;22.30;40.00
49184;DHT22;35021;49.214;12.270;2023-06-04T05:53:03;22.30;39.80
49184;DHT22;35021;49.214;12.270;2023-06-04T05:55:30;22.40;39.70
49184;DHT22;35021;49.214;12.270;2023-06-04T05:57:57;22.40;39.70
49184;DHT22;35021;49.214;12.270;2023-06-04T06:00:24;22.40;39.60
49184;DHT22;35021;49.214;12.270;2023-06-04T06:02:51;22.40;40.30
49184;DHT22;35021;49.214;12.270;2023-06-04T06:05:19;22.40;39.50
49184;DHT22;35021;49.214;12.270;2023-06-04T06:07:48;22.40;39.40
49184;DHT22;35021;49.214;12.270;2023-06-04T06:10:15;22.30;39.30
49184;DHT22;35021;49.214;12.270;2023-06-04T06:12:43;22.30;39.40
49184;DHT22;35021;49.214;12.270;2023-06-04T06:15:10;22.30;39.30
49184;DHT22;35021;49.214;12.270;2023-06-04T06:17:38;22.20;39.20
49184;DHT22;35021;49.214;12.270;2023-06-04T06:20:05;22.20;39.20
49184;DHT22;35021;49.214;12.270;2023-06-04T06:23:08;22.20;39.10
49184;DHT22;35021;49.214;12.270;2023-06-04T06:26:48;22.30;39.10
49184;DHT22;35021;49.214;12.270;2023-06-04T06:29:15;22.30;39.10
49184;DHT22;35021;49.214;12.270;2023-06-04T06:31:42;22.30;39.00
49184;DHT22;35021;49.214;12.270;2023-06-04T06:34:09;22.40;39.70
49184;DHT22;35021;49.214;12.270;2023-06-04T06:36:56;22.40;38.90
49184;DHT22;35021;49.214;12.270;2023-06-04T06:39:23;22.50;38.80
49184;DHT22;35021;49.214;12.270;2023-06-04T06:41:50;22.50;38.70
49184;DHT22;35021;49.214;12.270;2023-06-04T06:44:17;22.50;38.70
49184;DHT22;35021;49.214;12.270;2023-06-04T06:46:44;22.50;38.70
49184;DHT22;35021;49.214;12.270;2023-06-04T06:49:11;22.50;38.80
49184;DHT22;35021;49.214;12.270;2023-06-04T06:51:38;22.50;38.90
49184;DHT22;35021;49.214;12.270;2023-06-04T06:54:05;22.50;39.10
49184;DHT22;35021;49.214;12.270;2023-06-04T06:56:31;22.50;39.30
49184;DHT22;35021;49.214;12.270;2023-06-04T06:58:58;22.30;39.30
49184;DHT22;35021;49.214;12.270;2023-06-04T07:01:25;22.30;39.30
49184;DHT22;35021;49.214;12.270;2023-06-04T07:03:53;22.30;39.30
49184;DHT22;35021;49.214;12.270;2023-06-04T07:06:20;22.20;39.20
49184;DHT22;35021;49.214;12.270;2023-06-04T07:08:48;22.20;39.20
49184;DHT22;35021;49.214;12.270;2023-06-04T07:11:19;22.30;39.20
49184;DHT22;35021;49.214;12.270;2023-06-04T07:13:45;22.30;39.20
49184;DHT22;35021;49.214;12.270;2023-06-04T07:16:12;22.30;39.10
49184;DHT22;35021;49.214;12.270;2023-06-04T07:18:40;22.30;39.00
49184;DHT22;35021;49.214;12.270;2023-06-04T07:21:09;22.30;38.90
49184;DHT22;35021;49.214;12.270;2023-06-04T07:23:36;22.30;38.90
49184;DHT22;35021;49.214;12.270;2023-06-04T07:26:03;22.30;38.90
49184;DHT22;35021;49.214;12.270;2023-06-04T07:28:30;22.30;38.90
49184;DHT22;35021;49.214;12.270;2023-06-04T07:30:58;22.30;38.90
49184;DHT22;35021;49.214;12.270;2023-06-04T07:33:25;22.30;38.90
49184;DHT22;35021;49.214;12.270;2023-06-04T07:35:55;22.30;38.90
49184;DHT22;35021;49.214;12.270;2023-06-04T07:38:22;22.20;38.90
49184;DHT22;35021;49.214;12.270;2023-06-04T07:40:48;22.20;39.00
49184;DHT22;35021;49.214;12.270;2023-06-04T07:43:15;22.20;39.20
49184;DHT22;35021;49.214;12.270;2023-06-04T07:45:42;22.10;39.60
49184;DHT22;35021;49.214;12.270;2023-06-04T07:48:09;22.10;39.20
49184;DHT22;35021;49.214;12.270;2023-06-04T07:50:37;22.10;39.30
49184;DHT22;35021;49.214;12.270;2023-06-04T07:53:07;22.10;39.20
49184;DHT22;35021;49.214;12.270;2023-06-04T07:55:34;22.00;39.10
49184;DHT22;35021;49.214;12.270;2023-06-04T07:58:01;22.10;39.10
49184;DHT22;35021;49.214;12.270;2023-06-04T08:00:32;22.10;39.10
49184;DHT22;35021;49.214;12.270;2023-06-04T08:02:59;22.00;39.80
49184;DHT22;35021;49.214;12.270;2023-06-04T08:05:26;22.00;39.20
49184;DHT22;35021;49.214;12.270;2023-06-04T08:07:53;22.00;39.20
49184;DHT22;35021;49.214;12.270;2023-06-04T08:10:20;22.00;39.10
49184;DHT22;35021;49.214;12.270;2023-06-04T08:12:48;21.90;39.10
49184;DHT22;35021;49.214;12.270;2023-06-04T08:15:15;22.00;39.20
49184;DHT22;35021;49.214;12.270;2023-06-04T08:17:42;21.90;39.30
49184;DHT22;35021;49.214;12.270;2023-06-04T08:20:10;21.90;39.40
49184;DHT22;35021;49.214;12.270;2023-06-04T08:22:37;21.90;39.40
49184;DHT22;35021;49.214;12.270;2023-06-04T08:25:04;21.90;39.30
49184;DHT22;35021;49.214;12.270;2023-06-04T08:27:31;21.90;39.40
49184;DHT22;35021;49.214;12.270;2023-06-04T08:29:58;21.90;39.40
49184;DHT22;35021;49.214;12.270;2023-06-04T08:32:25;21.90;39.40
49184;DHT22;35021;49.214;12.270;2023-06-04T08:34:53;21.90;39.50
49184;DHT22;35021;49.214;12.270;2023-06-04T08:37:21;21.90;39.50
49184;DHT22;35021;49.214;12.270;2023-06-04T08:39:48;21.90;39.50
49184;DHT22;35021;49.214;12.270;2023-06-04T08:42:31;21.90;39.60
49184;DHT22;35021;49.214;12.270;2023-06-04T08:45:02;22.00;39.50
49184;DHT22;35021;49.214;12.270;2023-06-04T08:47:35;22.00;39.40
49184;DHT22;35021;49.214;12.270;2023-06-04T08:50:05;22.00;39.20
49184;DHT22;35021;49.214;12.270;2023-06-04T08:52:34;22.10;38.80
49184;DHT22;35021;49.214;12.270;2023-06-04T08:55:01;22.20;38.70
49184;DHT22;35021;49.214;12.270;2023-06-04T08:57:30;22.20;38.40
49184;DHT22;35021;49.214;12.270;2023-06-04T08:59:57;22.30;38.40
49184;DHT22;35021;49.214;12.270;2023-06-04T09:02:27;22.40;38.30
49184;DHT22;35021;49.214;12.270;2023-06-04T09:04:55;22.50;38.40
49184;DHT22;35021;49.214;12.270;2023-06-04T09:07:24;22.60;38.20
49184;DHT22;35021;49.214;12.270;2023-06-04T09:09:52;22.70;38.10
49184;DHT22;35021;49.214;12.270;2023-06-04T09:12:42;22.80;37.80
49184;DHT22;35021;49.214;12.270;2023-06-04T09:15:10;22.90;37.50
49184;DHT22;35021;49.214;12.270;2023-06-04T09:17:38;22.90;37.30
49184;DHT22;35021;49.214;12.270;2023-06-04T09:20:05;23.00;37.10
49184;DHT22;35021;49.214;12.270;2023-06-04T09:22:37;23.00;37.00
49184;DHT22;35021;49.214;12.270;2023-06-04T09:25:06;23.10;36.90
49184;DHT22;35021;49.214;12.270;2023-06-04T09:27:39;23.10;37.00
49184;DHT22;35021;49.214;12.270;2023-06-04T09:30:07;23.10;37.00
49184;DHT22;35021;49.214;12.270;2023-06-04T09:32:37;23.10;36.90
49184;DHT22;35021;49.214;12.270;2023-06-04T09:35:11;23.00;36.80
49184;DHT22;35021;49.214;12.270;2023-06-04T09:37:40;23.00;36.90
49184;DHT22;35021;49.214;12.270;2023-06-04T09:40:08;22.90;37.00
49184;DHT22;35021;49.214;12.270;2023-06-04T09:42:46;22.90;37.10
49184;DHT22;35021;49.214;12.270;2023-06-04T09:45:13;22.80;37.00
49184;DHT22;35021;49.214;12.270;2023-06-04T09:47:43;22.80;37.00
49184;DHT22;35021;49.214;12.270;2023-06-04T09:50:13;22.80;36.90
49184;DHT22;35021;49.214;12.270;2023-06-04T09:52:40;22.70;37.00
49184;DHT22;35021;49.214;12.270;2023-06-04T09:55:17;22.70;36.90
49184;DHT22;35021;49.214;12.270;2023-06-04T09:57:51;22.70;37.10
49184;DHT22;35021;49.214;12.270;2023-06-04T10:00:20;22.60;37.00
49184;DHT22;35021;49.214;12.270;2023-06-04T10:02:56;22.60;37.10
49184;DHT22;35021;49.214;12.270;2023-06-04T10:05:24;22.60;37.20
49184;DHT22;35021;49.214;12.270;2023-06-04T10:07:52;22.60;37.10
49184;DHT22;35021;49.214;12.270;2023-06-04T10:10:25;22.60;37.00
49184;DHT22;35021;49.214;12.270;2023-06-04T10:13:05;22.60;37.00
49184;DHT22;35021;49.214;12.270;2023-06-04T10:15:32;22.50;36.90
49184;DHT22;35021;49.214;12.270;2023-06-04T10:18:02;22.50;37.50
49184;DHT22;35021;49.214;12.270;2023-06-04T10:20:30;22.50;37.00
49184;DHT22;35021;49.214;12.270;2023-06-04T10:22:58;22.50;36.80
49184;DHT22;35021;49.214;12.270;2023-06-04T10:25:28;22.50;36.80
49184;DHT22;35021;49.214;12.270;2023-06-04T10:27:55;22.50;36.70
49184;DHT22;35021;49.214;12.270;2023-06-04T10:30:22;22.50;36.60
49184;DHT22;35021;49.214;12.270;2023-06-04T10:32:50;22.50;36.70
49184;DHT22;35021;49.214;12.270;2023-06-04T10:35:17;22.50;36.80
49184;DHT22;35021;49.214;12.270;2023-06-04T10:37:44;22.50;36.80
49184;DHT22;35021;49.214;12.270;2023-06-04T10:40:14;22.50;36.80
49184;DHT22;35021;49.214;12.270;2023-06-04T10:42:42;22.60;37.00
49184;DHT22;35021;49.214;12.270;2023-06-04T10:45:10;22.60;36.90
49184;DHT22;35021;49.214;12.270;2023-06-04T10:47:37;22.60;36.90
49184;DHT22;35021;49.214;12.270;2023-06-04T10:50:12;22.60;36.70
49184;DHT22;35021;49.214;12.270;2023-06-04T10:52:53;22.60;36.40
49184;DHT22;35021;49.214;12.270;2023-06-04T10:55:20;22.60;36.30
49184;DHT22;35021;49.214;12.270;2023-06-04T10:57:52;22.60;36.30
49184;DHT22;35021;49.214;12.270;2023-06-04T11:00:19;22.60;37.10
49184;DHT22;35021;49.214;12.270;2023-06-04T11:02:55;22.60;36.50
49184;DHT22;35021;49.214;12.270;2023-06-04T11:05:22;22.60;36.70
49184;DHT22;35021;49.214;12.270;2023-06-04T11:08:00;22.60;36.80
49184;DHT22;35021;49.214;12.270;2023-06-04T11:10:39;22.70;36.90
49184;DHT22;35021;49.214;12.270;2023-06-04T11:13:06;22.70;36.90
49184;DHT22;35021;49.214;12.270;2023-06-04T11:15:44;22.70;36.70
49184;DHT22;35021;49.214;12.270;2023-06-04T11:18:16;22.70;36.60
49184;DHT22;35021;49.214;12.270;2023-06-04T11:20:47;22.70;36.30
49184;DHT22;35021;49.214;12.270;2023-06-04T11:23:15;22.70;36.20
49184;DHT22;35021;49.214;12.270;2023-06-04T11:25:43;22.70;36.20
49184;DHT22;35021;49.214;12.270;2023-06-04T11:28:15;22.80;36.20
49184;DHT22;35021;49.214;12.270;2023-06-04T11:33:24;22.80;36.10
49184;DHT22;35021;49.214;12.270;2023-06-04T11:35:51;22.80;36.10
49184;DHT22;35021;49.214;12.270;2023-06-04T11:38:18;22.80;36.10
49184;DHT22;35021;49.214;12.270;2023-06-04T11:40:58;22.80;36.00
49184;DHT22;35021;49.214;12.270;2023-06-04T11:43:26;22.80;36.10
49184;DHT22;35021;49.214;12.270;2023-06-04T11:45:53;22.80;36.30
49184;DHT22;35021;49.214;12.270;2023-06-04T11:48:20;22.80;36.40
49184;DHT22;35021;49.214;12.270;2023-06-04T11:50:48;22.80;36.70
49184;DHT22;35021;49.214;12.270;2023-06-04T11:53:14;22.80;36.80
49184;DHT22;35021;49.214;12.270;2023-06-04T11:55:42;22.80;36.70
49184;DHT22;35021;49.214;12.270;2023-06-04T11:58:09;22.80;36.80
49184;DHT22;35021;49.214;12.270;2023-06-04T12:00:36;22.80;36.70
49184;DHT22;35021;49.214;12.270;2023-06-04T12:03:03;22.80;36.70
49184;DHT22;35021;49.214;12.270;2023-06-04T12:05:30;22.80;37.30
49184;DHT22;35021;49.214;12.270;2023-06-04T12:08:08;22.80;36.50
49184;DHT22;35021;49.214;12.270;2023-06-04T12:10:37;22.70;36.40
49184;DHT22;35021;49.214;12.270;2023-06-04T12:13:05;22.70;36.30
49184;DHT22;35021;49.214;12.270;2023-06-04T12:15:32;22.70;36.40
49184;DHT22;35021;49.214;12.270;2023-06-04T12:17:59;22.70;36.40
49184;DHT22;35021;49.214;12.270;2023-06-04T12:20:40;22.70;36.40
49184;DHT22;35021;49.214;12.270;2023-06-04T12:23:19;22.70;36.50
49184;DHT22;35021;49.214;12.270;2023-06-04T12:25:50;22.70;36.60
49184;DHT22;35021;49.214;12.270;2023-06-04T12:28:17;22.70;36.60
49184;DHT22;35021;49.214;12.270;2023-06-04T12:30:44;22.70;36.60
49184;DHT22;35021;49.214;12.270;2023-06-04T12:33:12;22.70;36.70
49184;DHT22;35021;49.214;12.270;2023-06-04T12:35:38;22.70;36.70
49184;DHT22;35021;49.214;12.270;2023-06-04T12:38:05;22.70;36.70
49184;DHT22;35021;49.214;12.270;2023-06-04T12:40:35;22.70;36.60
49184;DHT22;35021;49.214;12.270;2023-06-04T12:43:02;22.70;36.60
49184;DHT22;35021;49.214;12.270;2023-06-04T12:45:29;22.70;36.60
49184;DHT22;35021;49.214;12.270;2023-06-04T12:47:56;22.70;36.50
49184;DHT22;35021;49.214;12.270;2023-06-04T12:50:23;22.70;36.50
49184;DHT22;35021;49.214;12.270;2023-06-04T12:52:50;22.70;36.60
49184;DHT22;35021;49.214;12.270;2023-06-04T12:55:17;22.70;36.70
49184;DHT22;35021;49.214;12.270;2023-06-04T12:57:44;22.70;36.80
49184;DHT22;35021;49.214;12.270;2023-06-04T13:00:11;22.80;36.80
49184;DHT22;35021;49.214;12.270;2023-06-04T13:02:38;22.80;36.60
49184;DHT22;35021;49.214;12.270;2023-06-04T13:05:06;22.80;36.60
49184;DHT22;35021;49.214;12.270;2023-06-04T13:07:33;22.70;36.60
49184;DHT22;35021;49.214;12.270;2023-06-04T13:09:59;22.70;36.60
49184;DHT22;35021;49.214;12.270;2023-06-04T13:12:27;22.80;36.70
49184;DHT22;35021;49.214;12.270;2023-06-04T13:14:54;22.80;36.70
49184;DHT22;35021;49.214;12.270;2023-06-04T13:17:22;22.80;36.70
49184;DHT22;35021;49.214;12.270;2023-06-04T13:19:49;22.80;36.70
49184;DHT22;35021;49.214;12.270;2023-06-04T13:22:16;22.80;36.80
49184;DHT22;35021;49.214;12.270;2023-06-04T13:24:43;22.90;36.80
49184;DHT22;35021;49.214;12.270;2023-06-04T13:27:10;22.90;36.70
49184;DHT22;35021;49.214;12.270;2023-06-04T13:29:37;22.90;36.60
49184;DHT22;35021;49.214;12.270;2023-06-04T13:32:04;22.90;36.60
49184;DHT22;35021;49.214;12.270;2023-06-04T13:34:32;22.90;36.60
49184;DHT22;35021;49.214;12.270;2023-06-04T13:36:59;23.00;36.70
49184;DHT22;35021;49.214;12.270;2023-06-04T13:39:25;23.10;36.70
49184;DHT22;35021;49.214;12.270;2023-06-04T13:41:52;23.10;36.70
49184;DHT22;35021;49.214;12.270;2023-06-04T13:44:21;23.10;36.60
49184;DHT22;35021;49.214;12.270;2023-06-04T13:46:52;23.10;36.50
49184;DHT22;35021;49.214;12.270;2023-06-04T13:49:20;23.10;36.60
49184;DHT22;35021;49.214;12.270;2023-06-04T13:51:47;23.10;36.50
49184;DHT22;35021;49.214;12.270;2023-06-04T13:54:14;23.10;36.50
49184;DHT22;35021;49.214;12.270;2023-06-04T13:56:41;23.10;36.50
49184;DHT22;35021;49.214;12.270;2023-06-04T13:59:08;23.20;36.40
49184;DHT22;35021;49.214;12.270;2023-06-04T14:01:34;23.20;37.20
49184;DHT22;35021;49.214;12.270;2023-06-04T14:04:02;23.20;36.50
49184;DHT22;35021;49.214;12.270;2023-06-04T14:06:32;23.10;36.60
49184;DHT22;35021;49.214;12.270;2023-06-04T14:08:59;23.10;36.60
49184;DHT22;35021;49.214;12.270;2023-06-04T14:11:26;23.10;36.70
49184;DHT22;35021;49.214;12.270;2023-06-04T14:13:53;23.10;36.80
49184;DHT22;35021;49.214;12.270;2023-06-04T14:16:20;23.00;36.80
49184;DHT22;35021;49.214;12.270;2023-06-04T14:18:47;23.00;36.80
49184;DHT22;35021;49.214;12.270;2023-06-04T14:21:14;23.00;36.90
49184;DHT22;35021;49.214;12.270;2023-06-04T14:23:41;22.90;36.90
49184;DHT22;35021;49.214;12.270;2023-06-04T14:26:08;22.90;36.90
49184;DHT22;35021;49.214;12.270;2023-06-04T14:28:35;22.90;36.90
49184;DHT22;35021;49.214;12.270;2023-06-04T14:31:02;22.90;37.00
49184;DHT22;35021;49.214;12.270;2023-06-04T14:33:29;22.80;37.00
49184;DHT22;35021;49.214;12.270;2023-06-04T14:35:56;22.80;37.10
49184;DHT22;35021;49.214;12.270;2023-06-04T14:38:23;22.90;37.10
49184;DHT22;35021;49.214;12.270;2023-06-04T14:40:50;22.90;37.20
49184;DHT22;35021;49.214;12.270;2023-06-04T14:43:17;22.90;37.20
49184;DHT22;35021;49.214;12.270;2023-06-04T14:45:44;22.90;37.30
49184;DHT22;35021;49.214;12.270;2023-06-04T14:48:13;22.90;37.30
49184;DHT22;35021;49.214;12.270;2023-06-04T14:50:42;22.80;37.20
49184;DHT22;35021;49.214;12.270;2023-06-04T14:53:11;22.90;37.20
49184;DHT22;35021;49.214;12.270;2023-06-04T14:55:38;22.90;37.30
49184;DHT22;35021;49.214;12.270;2023-06-04T14:58:05;22.90;37.10
49184;DHT22;35021;49.214;12.270;2023-06-04T15:00:32;22.90;37.10
49184;DHT22;35021;49.214;12.270;2023-06-04T15:02:59;22.90;37.00
49184;DHT22;35021;49.214;12.270;2023-06-04T15:05:27;22.90;37.10
49184;DHT22;35021;49.214;12.270;2023-06-04T15:07:54;22.90;37.10
49184;DHT22;35021;49.214;12.270;2023-06-04T15:10:21;22.90;37.00
49184;DHT22;35021;49.214;12.270;2023-06-04T15:12:48;22.90;36.90
49184;DHT22;35021;49.214;12.270;2023-06-04T15:15:15;22.90;36.90
49184;DHT22;35021;49.214;12.270;2023-06-04T15:17:41;22.90;36.90
49184;DHT22;35021;49.214;12.270;2023-06-04T15:20:12;22.90;37.00
49184;DHT22;35021;49.214;12.270;2023-06-04T15:22:39;22.90;36.90
49184;DHT22;35021;49.214;12.270;2023-06-04T15:25:06;22.90;36.80
49184;DHT22;35021;49.214;12.270;2023-06-04T15:27:34;22.90;36.70
49184;DHT22;35021;49.214;12.270;2023-06-04T15:30:01;22.90;36.70
49184;DHT22;35021;49.214;12.270;2023-06-04T15:32:28;22.90;36.80
49184;DHT22;35021;49.214;12.270;2023-06-04T15:34:55;22.90;37.00
49184;DHT22;35021;49.214;12.270;2023-06-04T15:37:24;22.90;37.00
49184;DHT22;35021;49.214;12.270;2023-06-04T15:39:51;22.90;37.10
49184;DHT22;35021;49.214;12.270;2023-06-04T15:42:18;22.90;37.10
49184;DHT22;35021;49.214;12.270;2023-06-04T15:44:45;22.90;37.00
49184;DHT22;35021;49.214;12.270;2023-06-04T15:47:12;22.90;36.90
49184;DHT22;35021;49.214;12.270;2023-06-04T15:49:38;22.90;36.90
49184;DHT22;35021;49.214;12.270;2023-06-04T15:52:05;22.90;37.00
49184;DHT22;35021;49.214;12.270;2023-06-04T15:54:33;22.90;37.00
49184;DHT22;35021;49.214;12.270;2023-06-04T15:57:12;22.90;37.00
49184;DHT22;35021;49.214;12.270;2023-06-04T15:59:40;22.80;37.00
49184;DHT22;35021;49.214;12.270;2023-06-04T16:02:07;22.80;37.00
49184;DHT22;35021;49.214;12.270;2023-06-04T16:04:34;22.80;36.90
49184;DHT22;35021;49.214;12.270;2023-06-04T16:07:02;22.80;36.80